sensor_id;sensor_type;location;lat;lon;timestamp;P1;durP1;ratioP1;P2;durP2;ratioP2
5507;SDS011;2776;51.046;6.772;2024-03-17T00:01:09;3.67;;;3.00;;
5507;SDS011;2776;51.046;6.772;2024-03-17T00:03:35;6.67;;;3.20;;
5507;SDS011;2776;51.046;6.772;2024-03-17T00:06:03;5.20;;;3.03;;
5507;SDS011;2776;51.046;6.772;2024-03-17T00:08:29;5.30;;;3.80;;
5507;SDS011;2776;51.046;6.772;2024-03-17T00:10:56;5.00;;;3.70;;
5507;SDS011;2776;51.046;6.772;2024-03-17T00:13:21;5.70;;;3.80;;
5507;SDS011;2776;51.046;6.772;2024-03-17T00:15:48;4.90;;;3.10;;
5507;SDS011;2776;51.046;6.772;2024-03-17T00:18:14;3.83;;;3.10;;
5507;SDS011;2776;51.046;6.772;2024-03-17T00:20:41;8.00;;;3.33;;
5507;SDS011;2776;51.046;6.772;2024-03-17T00:23:09;6.07;;;3.23;;
5507;SDS011;2776;51.046;6.772;2024-03-17T00:25:37;4.00;;;3.60;;
5507;SDS011;2776;51.046;6.772;2024-03-17T00:28:03;7.97;;;4.23;;
5507;SDS011;2776;51.046;6.772;2024-03-17T00:30:30;6.37;;;4.47;;
5507;SDS011;2776;51.046;6.772;2024-03-17T00:32:56;10.80;;;5.07;;
5507;SDS011;2776;51.046;6.772;2024-03-17T00:35:23;7.20;;;4.23;;
5507;SDS011;2776;51.046;6.772;2024-03-17T00:37:49;7.50;;;3.73;;
5507;SDS011;2776;51.046;6.772;2024-03-17T00:40:18;5.63;;;4.43;;
5507;SDS011;2776;51.046;6.772;2024-03-17T00:42:44;7.27;;;4.90;;
5507;SDS011;2776;51.046;6.772;2024-03-17T00:45:11;8.07;;;5.23;;
5507;SDS011;2776;51.046;6.772;2024-03-17T00:47:37;6.27;;;4.90;;
5507;SDS011;2776;51.046;6.772;2024-03-17T00:50:05;8.03;;;5.50;;
5507;SDS011;2776;51.046;6.772;2024-03-17T00:52:32;10.13;;;5.27;;
5507;SDS011;2776;51.046;6.772;2024-03-17T00:54:59;5.57;;;4.07;;
5507;SDS011;2776;51.046;6.772;2024-03-17T00:57:27;6.63;;;4.50;;
5507;SDS011;2776;51.046;6.772;2024-03-17T00:59:54;8.97;;;4.90;;
5507;SDS011;2776;51.046;6.772;2024-03-17T01:02:20;8.83;;;4.37;;
5507;SDS011;2776;51.046;6.772;2024-03-17T01:04:47;8.37;;;4.80;;
5507;SDS011;2776;51.046;6.772;2024-03-17T01:07:12;5.23;;;4.07;;
5507;SDS011;2776;51.046;6.772;2024-03-17T01:09:39;7.87;;;4.70;;
5507;SDS011;2776;51.046;6.772;2024-03-17T01:12:05;7.93;;;4.93;;
5507;SDS011;2776;51.046;6.772;2024-03-17T01:14:33;7.23;;;4.47;;
5507;SDS011;2776;51.046;6.772;2024-03-17T01:16:59;9.73;;;4.73;;
5507;SDS011;2776;51.046;6.772;2024-03-17T01:19:29;9.33;;;5.10;;
5507;SDS011;2776;51.046;6.772;2024-03-17T01:21:56;6.17;;;4.40;;
5507;SDS011;2776;51.046;6.772;2024-03-17T01:24:22;8.10;;;4.27;;
5507;SDS011;2776;51.046;6.772;2024-03-17T01:26:49;5.17;;;4.30;;
5507;SDS011;2776;51.046;6.772;2024-03-17T01:29:16;6.40;;;4.17;;
5507;SDS011;2776;51.046;6.772;2024-03-17T01:31:43;6.53;;;4.33;;
5507;SDS011;2776;51.046;6.772;2024-03-17T01:34:10;8.17;;;4.67;;
5507;SDS011;2776;51.046;6.772;2024-03-17T01:36:36;7.47;;;4.03;;
5507;SDS011;2776;51.046;6.772;2024-03-17T01:39:03;9.57;;;4.30;;
5507;SDS011;2776;51.046;6.772;2024-03-17T01:41:30;5.53;;;4.17;;
5507;SDS011;2776;51.046;6.772;2024-03-17T01:43:56;8.00;;;3.93;;
5507;SDS011;2776;51.046;6.772;2024-03-17T01:46:23;7.73;;;4.60;;
5507;SDS011;2776;51.046;6.772;2024-03-17T01:48:51;9.57;;;4.80;;
5507;SDS011;2776;51.046;6.772;2024-03-17T01:51:18;9.43;;;4.77;;
5507;SDS011;2776;51.046;6.772;2024-03-17T01:53:44;6.47;;;4.27;;
5507;SDS011;2776;51.046;6.772;2024-03-17T01:56:12;7.10;;;4.67;;
5507;SDS011;2776;51.046;6.772;2024-03-17T01:58:40;6.00;;;4.20;;
5507;SDS011;2776;51.046;6.772;2024-03-17T02:01:10;4.40;;;3.77;;
5507;SDS011;2776;51.046;6.772;2024-03-17T02:03:39;8.47;;;4.67;;
5507;SDS011;2776;51.046;6.772;2024-03-17T02:06:07;8.50;;;4.53;;
5507;SDS011;2776;51.046;6.772;2024-03-17T02:08:46;8.70;;;5.40;;
5507;SDS011;2776;51.046;6.772;2024-03-17T02:11:22;5.93;;;3.90;;
5507;SDS011;2776;51.046;6.772;2024-03-17T02:13:49;5.73;;;4.00;;
5507;SDS011;2776;51.046;6.772;2024-03-17T02:16:16;6.70;;;4.10;;
5507;SDS011;2776;51.046;6.772;2024-03-17T02:18:43;7.03;;;3.47;;
5507;SDS011;2776;51.046;6.772;2024-03-17T02:21:11;5.33;;;3.30;;
5507;SDS011;2776;51.046;6.772;2024-03-17T02:23:39;4.53;;;2.97;;
5507;SDS011;2776;51.046;6.772;2024-03-17T02:26:05;6.00;;;3.37;;
5507;SDS011;2776;51.046;6.772;2024-03-17T02:28:37;3.63;;;3.33;;
5507;SDS011;2776;51.046;6.772;2024-03-17T02:31:08;4.17;;;2.60;;
5507;SDS011;2776;51.046;6.772;2024-03-17T02:33:36;7.37;;;3.20;;
5507;SDS011;2776;51.046;6.772;2024-03-17T02:36:03;6.13;;;3.60;;
5507;SDS011;2776;51.046;6.772;2024-03-17T02:38:32;4.83;;;3.60;;
5507;SDS011;2776;51.046;6.772;2024-03-17T02:41:18;4.43;;;2.93;;
5507;SDS011;2776;51.046;6.772;2024-03-17T02:43:45;8.90;;;3.70;;
5507;SDS011;2776;51.046;6.772;2024-03-17T02:46:11;6.07;;;3.23;;
5507;SDS011;2776;51.046;6.772;2024-03-17T02:48:38;4.20;;;3.40;;
5507;SDS011;2776;51.046;6.772;2024-03-17T02:51:09;10.10;;;3.97;;
5507;SDS011;2776;51.046;6.772;2024-03-17T02:53:37;7.00;;;4.20;;
5507;SDS011;2776;51.046;6.772;2024-03-17T02:56:04;9.57;;;4.00;;
5507;SDS011;2776;51.046;6.772;2024-03-17T02:58:33;6.73;;;3.90;;
5507;SDS011;2776;51.046;6.772;2024-03-17T03:01:00;7.17;;;3.70;;
5507;SDS011;2776;51.046;6.772;2024-03-17T03:03:27;5.93;;;3.70;;
5507;SDS011;2776;51.046;6.772;2024-03-17T03:05:54;7.80;;;3.50;;
5507;SDS011;2776;51.046;6.772;2024-03-17T03:08:21;6.03;;;4.40;;
5507;SDS011;2776;51.046;6.772;2024-03-17T03:10:48;9.63;;;4.10;;
5507;SDS011;2776;51.046;6.772;2024-03-17T03:13:15;7.43;;;3.50;;
5507;SDS011;2776;51.046;6.772;2024-03-17T03:15:44;5.37;;;3.40;;
5507;SDS011;2776;51.046;6.772;2024-03-17T03:18:12;4.83;;;3.60;;
5507;SDS011;2776;51.046;6.772;2024-03-17T03:20:39;6.13;;;4.67;;
5507;SDS011;2776;51.046;6.772;2024-03-17T03:23:06;7.97;;;4.57;;
5507;SDS011;2776;51.046;6.772;2024-03-17T03:25:33;7.23;;;4.57;;
5507;SDS011;2776;51.046;6.772;2024-03-17T03:27:59;7.27;;;4.63;;
5507;SDS011;2776;51.046;6.772;2024-03-17T03:30:27;8.33;;;4.80;;
5507;SDS011;2776;51.046;6.772;2024-03-17T03:32:55;6.57;;;4.83;;
5507;SDS011;2776;51.046;6.772;2024-03-17T03:35:22;6.37;;;5.30;;
5507;SDS011;2776;51.046;6.772;2024-03-17T03:37:49;9.07;;;5.33;;
5507;SDS011;2776;51.046;6.772;2024-03-17T03:40:16;5.83;;;4.60;;
5507;SDS011;2776;51.046;6.772;2024-03-17T03:42:43;7.83;;;5.47;;
5507;SDS011;2776;51.046;6.772;2024-03-17T03:45:10;8.23;;;5.40;;
5507;SDS011;2776;51.046;6.772;2024-03-17T03:47:38;8.43;;;5.53;;
5507;SDS011;2776;51.046;6.772;2024-03-17T03:50:07;7.27;;;6.27;;
5507;SDS011;2776;51.046;6.772;2024-03-17T03:52:35;9.40;;;5.80;;
5507;SDS011;2776;51.046;6.772;2024-03-17T03:55:02;10.30;;;6.23;;
5507;SDS011;2776;51.046;6.772;2024-03-17T03:57:29;8.10;;;5.20;;
5507;SDS011;2776;51.046;6.772;2024-03-17T03:59:57;8.37;;;5.27;;
5507;SDS011;2776;51.046;6.772;2024-03-17T04:02:23;8.00;;;5.53;;
5507;SDS011;2776;51.046;6.772;2024-03-17T04:04:50;9.27;;;5.57;;
5507;SDS011;2776;51.046;6.772;2024-03-17T04:07:18;8.80;;;6.07;;
5507;SDS011;2776;51.046;6.772;2024-03-17T04:09:45;10.80;;;6.57;;
5507;SDS011;2776;51.046;6.772;2024-03-17T04:12:12;7.93;;;5.50;;
5507;SDS011;2776;51.046;6.772;2024-03-17T04:14:39;8.50;;;6.10;;
5507;SDS011;2776;51.046;6.772;2024-03-17T04:17:05;12.33;;;6.20;;
5507;SDS011;2776;51.046;6.772;2024-03-17T04:19:32;9.70;;;5.77;;
5507;SDS011;2776;51.046;6.772;2024-03-17T04:21:59;6.87;;;5.63;;
5507;SDS011;2776;51.046;6.772;2024-03-17T04:24:27;5.90;;;4.53;;
5507;SDS011;2776;51.046;6.772;2024-03-17T04:26:54;8.80;;;6.30;;
5507;SDS011;2776;51.046;6.772;2024-03-17T04:29:20;13.07;;;4.60;;
5507;SDS011;2776;51.046;6.772;2024-03-17T04:31:47;6.47;;;5.17;;
5507;SDS011;2776;51.046;6.772;2024-03-17T04:34:14;6.93;;;5.03;;
5507;SDS011;2776;51.046;6.772;2024-03-17T04:36:41;7.30;;;5.53;;
5507;SDS011;2776;51.046;6.772;2024-03-17T04:39:08;13.90;;;5.80;;
5507;SDS011;2776;51.046;6.772;2024-03-17T04:41:36;13.50;;;6.43;;
5507;SDS011;2776;51.046;6.772;2024-03-17T04:44:05;8.37;;;5.40;;
5507;SDS011;2776;51.046;6.772;2024-03-17T04:46:32;9.63;;;5.07;;
5507;SDS011;2776;51.046;6.772;2024-03-17T04:48:59;11.87;;;6.33;;
5507;SDS011;2776;51.046;6.772;2024-03-17T04:51:28;8.93;;;5.90;;
5507;SDS011;2776;51.046;6.772;2024-03-17T04:53:55;8.13;;;5.70;;
5507;SDS011;2776;51.046;6.772;2024-03-17T04:56:21;7.37;;;4.60;;
5507;SDS011;2776;51.046;6.772;2024-03-17T04:58:49;11.43;;;5.77;;
5507;SDS011;2776;51.046;6.772;2024-03-17T05:01:16;7.57;;;5.60;;
5507;SDS011;2776;51.046;6.772;2024-03-17T05:03:43;8.83;;;5.37;;
5507;SDS011;2776;51.046;6.772;2024-03-17T05:06:10;7.90;;;5.20;;
5507;SDS011;2776;51.046;6.772;2024-03-17T05:08:37;7.23;;;4.47;;
5507;SDS011;2776;51.046;6.772;2024-03-17T05:11:04;7.73;;;5.50;;
5507;SDS011;2776;51.046;6.772;2024-03-17T05:13:32;9.53;;;5.43;;
5507;SDS011;2776;51.046;6.772;2024-03-17T05:16:01;6.27;;;4.70;;
5507;SDS011;2776;51.046;6.772;2024-03-17T05:18:28;9.67;;;5.63;;
5507;SDS011;2776;51.046;6.772;2024-03-17T05:20:58;8.13;;;5.37;;
5507;SDS011;2776;51.046;6.772;2024-03-17T05:23:26;7.40;;;4.77;;
5507;SDS011;2776;51.046;6.772;2024-03-17T05:25:53;10.20;;;5.80;;
5507;SDS011;2776;51.046;6.772;2024-03-17T05:28:20;7.83;;;5.33;;
5507;SDS011;2776;51.046;6.772;2024-03-17T05:30:47;8.57;;;4.93;;
5507;SDS011;2776;51.046;6.772;2024-03-17T05:33:17;7.50;;;4.87;;
5507;SDS011;2776;51.046;6.772;2024-03-17T05:35:48;6.37;;;5.13;;
5507;SDS011;2776;51.046;6.772;2024-03-17T05:38:15;8.13;;;5.40;;
5507;SDS011;2776;51.046;6.772;2024-03-17T05:40:42;6.80;;;4.97;;
5507;SDS011;2776;51.046;6.772;2024-03-17T05:43:09;11.13;;;5.20;;
5507;SDS011;2776;51.046;6.772;2024-03-17T05:45:36;7.90;;;4.60;;
5507;SDS011;2776;51.046;6.772;2024-03-17T05:48:03;7.13;;;5.27;;
5507;SDS011;2776;51.046;6.772;2024-03-17T05:50:31;7.50;;;5.57;;
5507;SDS011;2776;51.046;6.772;2024-03-17T05:52:58;8.17;;;5.13;;
5507;SDS011;2776;51.046;6.772;2024-03-17T05:55:25;6.17;;;4.87;;
5507;SDS011;2776;51.046;6.772;2024-03-17T05:57:51;6.67;;;4.50;;
5507;SDS011;2776;51.046;6.772;2024-03-17T06:00:19;6.80;;;4.13;;
5507;SDS011;2776;51.046;6.772;2024-03-17T06:02:46;9.43;;;4.77;;
5507;SDS011;2776;51.046;6.772;2024-03-17T06:05:13;8.63;;;5.27;;
5507;SDS011;2776;51.046;6.772;2024-03-17T06:07:41;7.17;;;5.17;;
5507;SDS011;2776;51.046;6.772;2024-03-17T06:10:08;6.97;;;5.10;;
5507;SDS011;2776;51.046;6.772;2024-03-17T06:12:35;6.17;;;4.67;;
5507;SDS011;2776;51.046;6.772;2024-03-17T06:15:03;7.13;;;5.10;;
5507;SDS011;2776;51.046;6.772;2024-03-17T06:17:31;6.73;;;4.50;;
5507;SDS011;2776;51.046;6.772;2024-03-17T06:19:58;6.40;;;4.50;;
5507;SDS011;2776;51.046;6.772;2024-03-17T06:22:28;6.97;;;5.03;;
5507;SDS011;2776;51.046;6.772;2024-03-17T06:24:56;9.07;;;4.50;;
5507;SDS011;2776;51.046;6.772;2024-03-17T06:27:22;11.23;;;5.10;;
5507;SDS011;2776;51.046;6.772;2024-03-17T06:29:49;7.20;;;4.93;;
5507;SDS011;2776;51.046;6.772;2024-03-17T06:32:16;8.93;;;5.13;;
5507;SDS011;2776;51.046;6.772;2024-03-17T06:34:43;6.47;;;4.97;;
5507;SDS011;2776;51.046;6.772;2024-03-17T06:37:10;8.27;;;6.00;;
5507;SDS011;2776;51.046;6.772;2024-03-17T06:39:37;6.50;;;5.20;;
5507;SDS011;2776;51.046;6.772;2024-03-17T06:42:06;7.53;;;5.57;;
5507;SDS011;2776;51.046;6.772;2024-03-17T06:44:34;7.10;;;5.47;;
5507;SDS011;2776;51.046;6.772;2024-03-17T06:47:00;7.80;;;5.20;;
5507;SDS011;2776;51.046;6.772;2024-03-17T06:49:27;8.47;;;4.87;;
5507;SDS011;2776;51.046;6.772;2024-03-17T06:51:55;5.27;;;4.00;;
5507;SDS011;2776;51.046;6.772;2024-03-17T06:54:22;5.20;;;3.77;;
5507;SDS011;2776;51.046;6.772;2024-03-17T06:56:49;3.93;;;3.37;;
5507;SDS011;2776;51.046;6.772;2024-03-17T06:59:18;4.87;;;3.37;;
5507;SDS011;2776;51.046;6.772;2024-03-17T07:01:45;3.37;;;3.07;;
5507;SDS011;2776;51.046;6.772;2024-03-17T07:04:13;3.67;;;3.00;;
5507;SDS011;2776;51.046;6.772;2024-03-17T07:06:39;4.03;;;3.13;;
5507;SDS011;2776;51.046;6.772;2024-03-17T07:09:06;7.80;;;3.00;;
5507;SDS011;2776;51.046;6.772;2024-03-17T07:11:33;3.40;;;3.00;;
5507;SDS011;2776;51.046;6.772;2024-03-17T07:14:00;4.37;;;3.00;;
5507;SDS011;2776;51.046;6.772;2024-03-17T07:16:29;5.60;;;3.07;;
5507;SDS011;2776;51.046;6.772;2024-03-17T07:18:57;3.37;;;2.37;;
5507;SDS011;2776;51.046;6.772;2024-03-17T07:21:24;6.17;;;2.80;;
5507;SDS011;2776;51.046;6.772;2024-03-17T07:23:51;3.23;;;2.90;;
5507;SDS011;2776;51.046;6.772;2024-03-17T07:26:17;2.87;;;2.47;;
5507;SDS011;2776;51.046;6.772;2024-03-17T07:28:44;4.23;;;2.80;;
5507;SDS011;2776;51.046;6.772;2024-03-17T07:31:11;4.17;;;2.70;;
5507;SDS011;2776;51.046;6.772;2024-03-17T07:33:39;4.07;;;3.17;;
5507;SDS011;2776;51.046;6.772;2024-03-17T07:36:05;4.60;;;3.30;;
5507;SDS011;2776;51.046;6.772;2024-03-17T07:38:35;5.53;;;2.70;;
5507;SDS011;2776;51.046;6.772;2024-03-17T07:41:02;5.17;;;2.90;;
5507;SDS011;2776;51.046;6.772;2024-03-17T07:43:30;3.07;;;2.40;;
5507;SDS011;2776;51.046;6.772;2024-03-17T07:46:00;3.97;;;2.70;;
5507;SDS011;2776;51.046;6.772;2024-03-17T07:48:28;3.60;;;2.70;;
5507;SDS011;2776;51.046;6.772;2024-03-17T07:50:58;3.03;;;2.70;;
5507;SDS011;2776;51.046;6.772;2024-03-17T07:53:28;3.60;;;2.57;;
5507;SDS011;2776;51.046;6.772;2024-03-17T07:55:58;2.53;;;2.33;;
5507;SDS011;2776;51.046;6.772;2024-03-17T07:58:26;3.70;;;2.20;;
5507;SDS011;2776;51.046;6.772;2024-03-17T08:00:56;2.63;;;2.13;;
5507;SDS011;2776;51.046;6.772;2024-03-17T08:03:24;2.60;;;2.40;;
5507;SDS011;2776;51.046;6.772;2024-03-17T08:05:51;5.50;;;2.73;;
5507;SDS011;2776;51.046;6.772;2024-03-17T08:08:19;2.40;;;2.13;;
5507;SDS011;2776;51.046;6.772;2024-03-17T08:10:46;3.43;;;2.47;;
5507;SDS011;2776;51.046;6.772;2024-03-17T08:13:13;4.40;;;2.57;;
5507;SDS011;2776;51.046;6.772;2024-03-17T08:15:41;4.20;;;2.10;;
5507;SDS011;2776;51.046;6.772;2024-03-17T08:18:07;3.90;;;2.50;;
5507;SDS011;2776;51.046;6.772;2024-03-17T08:20:35;4.70;;;2.30;;
5507;SDS011;2776;51.046;6.772;2024-03-17T08:23:03;3.43;;;2.67;;
5507;SDS011;2776;51.046;6.772;2024-03-17T08:25:32;4.47;;;2.83;;
5507;SDS011;2776;51.046;6.772;2024-03-17T08:27:58;2.73;;;2.37;;
5507;SDS011;2776;51.046;6.772;2024-03-17T08:30:25;3.83;;;2.40;;
5507;SDS011;2776;51.046;6.772;2024-03-17T08:32:52;4.67;;;2.30;;
5507;SDS011;2776;51.046;6.772;2024-03-17T08:35:19;2.50;;;2.07;;
5507;SDS011;2776;51.046;6.772;2024-03-17T08:37:46;2.33;;;2.10;;
5507;SDS011;2776;51.046;6.772;2024-03-17T08:40:13;2.13;;;1.93;;
5507;SDS011;2776;51.046;6.772;2024-03-17T08:42:41;3.10;;;2.20;;
5507;SDS011;2776;51.046;6.772;2024-03-17T08:45:08;2.77;;;2.20;;
5507;SDS011;2776;51.046;6.772;2024-03-17T08:47:37;3.53;;;2.07;;
5507;SDS011;2776;51.046;6.772;2024-03-17T08:50:04;3.03;;;2.30;;
5507;SDS011;2776;51.046;6.772;2024-03-17T08:52:33;3.90;;;2.37;;
5507;SDS011;2776;51.046;6.772;2024-03-17T08:55:00;3.80;;;2.33;;
5507;SDS011;2776;51.046;6.772;2024-03-17T08:57:28;3.30;;;2.30;;
5507;SDS011;2776;51.046;6.772;2024-03-17T08:59:56;4.17;;;2.30;;
5507;SDS011;2776;51.046;6.772;2024-03-17T09:02:23;3.03;;;2.20;;
5507;SDS011;2776;51.046;6.772;2024-03-17T09:04:49;2.43;;;1.87;;
5507;SDS011;2776;51.046;6.772;2024-03-17T09:07:16;3.93;;;2.53;;
5507;SDS011;2776;51.046;6.772;2024-03-17T09:09:43;2.87;;;2.20;;
5507;SDS011;2776;51.046;6.772;2024-03-17T09:12:09;3.23;;;2.40;;
5507;SDS011;2776;51.046;6.772;2024-03-17T09:14:36;3.33;;;2.13;;
5507;SDS011;2776;51.046;6.772;2024-03-17T09:17:04;4.57;;;2.57;;
5507;SDS011;2776;51.046;6.772;2024-03-17T09:19:31;3.00;;;2.10;;
5507;SDS011;2776;51.046;6.772;2024-03-17T09:21:58;3.23;;;2.57;;
5507;SDS011;2776;51.046;6.772;2024-03-17T09:24:25;2.60;;;2.30;;
5507;SDS011;2776;51.046;6.772;2024-03-17T09:26:52;3.87;;;2.43;;
5507;SDS011;2776;51.046;6.772;2024-03-17T09:29:19;3.23;;;2.30;;
5507;SDS011;2776;51.046;6.772;2024-03-17T09:31:46;3.13;;;2.53;;
5507;SDS011;2776;51.046;6.772;2024-03-17T09:34:14;3.13;;;2.23;;
5507;SDS011;2776;51.046;6.772;2024-03-17T09:36:40;4.13;;;2.67;;
5507;SDS011;2776;51.046;6.772;2024-03-17T09:39:08;2.77;;;2.50;;
5507;SDS011;2776;51.046;6.772;2024-03-17T09:41:36;2.75;;;2.33;;
5507;SDS011;2776;51.046;6.772;2024-03-17T09:44:04;2.87;;;2.43;;
5507;SDS011;2776;51.046;6.772;2024-03-17T09:46:35;2.87;;;2.50;;
5507;SDS011;2776;51.046;6.772;2024-03-17T09:49:02;3.43;;;2.50;;
5507;SDS011;2776;51.046;6.772;2024-03-17T09:51:30;3.50;;;2.90;;
5507;SDS011;2776;51.046;6.772;2024-03-17T09:53:57;4.00;;;2.17;;
5507;SDS011;2776;51.046;6.772;2024-03-17T09:56:24;3.50;;;2.80;;
5507;SDS011;2776;51.046;6.772;2024-03-17T09:58:51;4.30;;;2.60;;
5507;SDS011;2776;51.046;6.772;2024-03-17T10:01:18;5.23;;;2.77;;
5507;SDS011;2776;51.046;6.772;2024-03-17T10:03:46;3.03;;;2.53;;
5507;SDS011;2776;51.046;6.772;2024-03-17T10:06:16;2.60;;;2.13;;
5507;SDS011;2776;51.046;6.772;2024-03-17T10:08:46;3.40;;;2.57;;
5507;SDS011;2776;51.046;6.772;2024-03-17T10:11:14;4.33;;;2.93;;
5507;SDS011;2776;51.046;6.772;2024-03-17T10:13:42;3.37;;;2.77;;
5507;SDS011;2776;51.046;6.772;2024-03-17T10:16:22;3.57;;;2.67;;
5507;SDS011;2776;51.046;6.772;2024-03-17T10:18:50;3.30;;;2.53;;
5507;SDS011;2776;51.046;6.772;2024-03-17T10:21:24;3.20;;;2.80;;
5507;SDS011;2776;51.046;6.772;2024-03-17T10:24:05;3.67;;;2.60;;
5507;SDS011;2776;51.046;6.772;2024-03-17T10:26:36;5.47;;;2.63;;
5507;SDS011;2776;51.046;6.772;2024-03-17T10:29:04;2.67;;;1.97;;
5507;SDS011;2776;51.046;6.772;2024-03-17T10:31:31;5.43;;;2.87;;
5507;SDS011;2776;51.046;6.772;2024-03-17T10:34:01;3.30;;;2.67;;
5507;SDS011;2776;51.046;6.772;2024-03-17T10:36:27;4.50;;;2.50;;
5507;SDS011;2776;51.046;6.772;2024-03-17T10:38:54;5.43;;;2.73;;
5507;SDS011;2776;51.046;6.772;2024-03-17T10:41:22;3.07;;;2.77;;
5507;SDS011;2776;51.046;6.772;2024-03-17T10:43:51;3.10;;;2.10;;
5507;SDS011;2776;51.046;6.772;2024-03-17T10:46:19;5.20;;;2.47;;
5507;SDS011;2776;51.046;6.772;2024-03-17T10:48:49;3.10;;;2.63;;
5507;SDS011;2776;51.046;6.772;2024-03-17T10:51:17;4.57;;;2.93;;
5507;SDS011;2776;51.046;6.772;2024-03-17T10:53:44;4.00;;;2.80;;
5507;SDS011;2776;51.046;6.772;2024-03-17T10:56:15;3.27;;;2.67;;
5507;SDS011;2776;51.046;6.772;2024-03-17T10:58:47;4.00;;;2.20;;
5507;SDS011;2776;51.046;6.772;2024-03-17T11:01:20;4.07;;;2.50;;
5507;SDS011;2776;51.046;6.772;2024-03-17T11:03:47;2.70;;;2.13;;
5507;SDS011;2776;51.046;6.772;2024-03-17T11:06:16;2.67;;;2.17;;
5507;SDS011;2776;51.046;6.772;2024-03-17T11:08:44;4.83;;;2.73;;
5507;SDS011;2776;51.046;6.772;2024-03-17T11:11:11;2.57;;;2.33;;
5507;SDS011;2776;51.046;6.772;2024-03-17T11:13:39;3.20;;;2.47;;
5507;SDS011;2776;51.046;6.772;2024-03-17T11:16:07;4.27;;;2.30;;
5507;SDS011;2776;51.046;6.772;2024-03-17T11:18:51;2.87;;;2.17;;
5507;SDS011;2776;51.046;6.772;2024-03-17T11:21:20;4.50;;;2.37;;
5507;SDS011;2776;51.046;6.772;2024-03-17T11:24:00;3.13;;;2.27;;
5507;SDS011;2776;51.046;6.772;2024-03-17T11:26:32;6.80;;;2.70;;
5507;SDS011;2776;51.046;6.772;2024-03-17T11:29:00;2.83;;;2.37;;
5507;SDS011;2776;51.046;6.772;2024-03-17T11:31:33;2.50;;;2.30;;
5507;SDS011;2776;51.046;6.772;2024-03-17T11:34:00;2.43;;;2.23;;
5507;SDS011;2776;51.046;6.772;2024-03-17T11:36:37;3.60;;;2.50;;
5507;SDS011;2776;51.046;6.772;2024-03-17T11:39:05;2.60;;;2.40;;
5507;SDS011;2776;51.046;6.772;2024-03-17T11:41:35;2.70;;;2.17;;
5507;SDS011;2776;51.046;6.772;2024-03-17T11:44:13;4.93;;;2.50;;
5507;SDS011;2776;51.046;6.772;2024-03-17T11:46:41;3.97;;;2.70;;
5507;SDS011;2776;51.046;6.772;2024-03-17T11:49:12;2.57;;;1.97;;
5507;SDS011;2776;51.046;6.772;2024-03-17T11:51:44;4.13;;;2.17;;
5507;SDS011;2776;51.046;6.772;2024-03-17T11:54:13;3.93;;;2.63;;
5507;SDS011;2776;51.046;6.772;2024-03-17T11:56:43;2.30;;;2.10;;
5507;SDS011;2776;51.046;6.772;2024-03-17T11:59:11;2.37;;;2.17;;
5507;SDS011;2776;51.046;6.772;2024-03-17T12:01:37;3.13;;;2.47;;
5507;SDS011;2776;51.046;6.772;2024-03-17T12:04:06;4.27;;;2.27;;
5507;SDS011;2776;51.046;6.772;2024-03-17T12:06:32;2.70;;;2.17;;
5507;SDS011;2776;51.046;6.772;2024-03-17T12:09:09;3.27;;;2.40;;
5507;SDS011;2776;51.046;6.772;2024-03-17T12:11:39;3.00;;;2.40;;
5507;SDS011;2776;51.046;6.772;2024-03-17T12:14:12;2.40;;;2.07;;
5507;SDS011;2776;51.046;6.772;2024-03-17T12:16:49;3.03;;;2.53;;
5507;SDS011;2776;51.046;6.772;2024-03-17T12:19:18;3.30;;;2.70;;
5507;SDS011;2776;51.046;6.772;2024-03-17T12:21:45;4.17;;;2.67;;
5507;SDS011;2776;51.046;6.772;2024-03-17T12:24:16;2.90;;;2.30;;
5507;SDS011;2776;51.046;6.772;2024-03-17T12:26:45;5.07;;;2.17;;
5507;SDS011;2776;51.046;6.772;2024-03-17T12:29:22;2.33;;;2.10;;
5507;SDS011;2776;51.046;6.772;2024-03-17T12:31:50;2.73;;;2.17;;
5507;SDS011;2776;51.046;6.772;2024-03-17T12:34:17;3.53;;;2.27;;
5507;SDS011;2776;51.046;6.772;2024-03-17T12:36:45;4.00;;;2.70;;
5507;SDS011;2776;51.046;6.772;2024-03-17T12:39:11;6.83;;;2.70;;
5507;SDS011;2776;51.046;6.772;2024-03-17T12:41:45;3.20;;;2.20;;
5507;SDS011;2776;51.046;6.772;2024-03-17T12:44:25;2.40;;;2.00;;
5507;SDS011;2776;51.046;6.772;2024-03-17T12:46:54;3.73;;;2.40;;
5507;SDS011;2776;51.046;6.772;2024-03-17T12:49:22;2.43;;;2.20;;
5507;SDS011;2776;51.046;6.772;2024-03-17T12:51:51;3.27;;;2.27;;
5507;SDS011;2776;51.046;6.772;2024-03-17T12:54:17;2.53;;;2.10;;
5507;SDS011;2776;51.046;6.772;2024-03-17T12:56:48;2.97;;;2.20;;
5507;SDS011;2776;51.046;6.772;2024-03-17T12:59:42;2.80;;;2.37;;
5507;SDS011;2776;51.046;6.772;2024-03-17T13:02:27;2.87;;;2.00;;
5507;SDS011;2776;51.046;6.772;2024-03-17T13:05:09;2.33;;;2.00;;
5507;SDS011;2776;51.046;6.772;2024-03-17T13:07:40;2.97;;;2.53;;
5507;SDS011;2776;51.046;6.772;2024-03-17T13:10:07;3.87;;;2.60;;
5507;SDS011;2776;51.046;6.772;2024-03-17T13:12:34;3.17;;;2.43;;
5507;SDS011;2776;51.046;6.772;2024-03-17T13:15:01;2.53;;;2.33;;
5507;SDS011;2776;51.046;6.772;2024-03-17T13:17:28;3.73;;;2.40;;
5507;SDS011;2776;51.046;6.772;2024-03-17T13:19:55;3.90;;;2.40;;
5507;SDS011;2776;51.046;6.772;2024-03-17T13:22:23;5.03;;;2.70;;
5507;SDS011;2776;51.046;6.772;2024-03-17T13:24:51;2.70;;;2.50;;
5507;SDS011;2776;51.046;6.772;2024-03-17T13:27:17;4.03;;;2.30;;
5507;SDS011;2776;51.046;6.772;2024-03-17T13:29:47;2.53;;;2.20;;
5507;SDS011;2776;51.046;6.772;2024-03-17T13:32:14;3.10;;;2.40;;
5507;SDS011;2776;51.046;6.772;2024-03-17T13:34:42;3.40;;;2.60;;
5507;SDS011;2776;51.046;6.772;2024-03-17T13:37:09;3.27;;;2.20;;
5507;SDS011;2776;51.046;6.772;2024-03-17T13:39:37;3.80;;;2.30;;
5507;SDS011;2776;51.046;6.772;2024-03-17T13:42:04;3.17;;;2.40;;
5507;SDS011;2776;51.046;6.772;2024-03-17T13:44:31;4.07;;;2.60;;
5507;SDS011;2776;51.046;6.772;2024-03-17T13:46:58;3.27;;;2.60;;
5507;SDS011;2776;51.046;6.772;2024-03-17T13:49:26;3.53;;;2.40;;
5507;SDS011;2776;51.046;6.772;2024-03-17T13:51:54;4.73;;;2.37;;
5507;SDS011;2776;51.046;6.772;2024-03-17T13:54:21;3.37;;;2.80;;
5507;SDS011;2776;51.046;6.772;2024-03-17T13:56:50;3.63;;;2.40;;
5507;SDS011;2776;51.046;6.772;2024-03-17T13:59:17;3.23;;;2.10;;
5507;SDS011;2776;51.046;6.772;2024-03-17T14:01:43;3.00;;;2.43;;
5507;SDS011;2776;51.046;6.772;2024-03-17T14:04:12;2.50;;;2.30;;
5507;SDS011;2776;51.046;6.772;2024-03-17T14:06:40;3.37;;;2.20;;
5507;SDS011;2776;51.046;6.772;2024-03-17T14:09:07;2.30;;;2.10;;
5507;SDS011;2776;51.046;6.772;2024-03-17T14:11:35;3.30;;;2.47;;
5507;SDS011;2776;51.046;6.772;2024-03-17T14:14:03;2.77;;;2.20;;
5507;SDS011;2776;51.046;6.772;2024-03-17T14:16:30;3.67;;;2.20;;
5507;SDS011;2776;51.046;6.772;2024-03-17T14:18:58;5.17;;;2.40;;
5507;SDS011;2776;51.046;6.772;2024-03-17T14:21:25;2.23;;;2.10;;
5507;SDS011;2776;51.046;6.772;2024-03-17T14:23:52;6.07;;;2.43;;
5507;SDS011;2776;51.046;6.772;2024-03-17T14:26:18;2.13;;;1.93;;
5507;SDS011;2776;51.046;6.772;2024-03-17T14:28:46;6.00;;;1.93;;
5507;SDS011;2776;51.046;6.772;2024-03-17T14:31:15;3.60;;;1.90;;
5507;SDS011;2776;51.046;6.772;2024-03-17T14:33:42;2.60;;;2.33;;
5507;SDS011;2776;51.046;6.772;2024-03-17T14:36:09;2.03;;;1.90;;
5507;SDS011;2776;51.046;6.772;2024-03-17T14:38:36;3.57;;;1.90;;
5507;SDS011;2776;51.046;6.772;2024-03-17T14:41:02;2.93;;;1.97;;
5507;SDS011;2776;51.046;6.772;2024-03-17T14:43:29;2.40;;;1.73;;
5507;SDS011;2776;51.046;6.772;2024-03-17T14:45:56;2.40;;;1.80;;
5507;SDS011;2776;51.046;6.772;2024-03-17T14:48:24;3.07;;;2.13;;
5507;SDS011;2776;51.046;6.772;2024-03-17T14:50:51;2.40;;;2.20;;
5507;SDS011;2776;51.046;6.772;2024-03-17T14:53:18;3.33;;;2.20;;
5507;SDS011;2776;51.046;6.772;2024-03-17T14:55:45;2.90;;;1.83;;
5507;SDS011;2776;51.046;6.772;2024-03-17T14:58:12;3.33;;;1.90;;
5507;SDS011;2776;51.046;6.772;2024-03-17T15:00:40;2.67;;;1.87;;
5507;SDS011;2776;51.046;6.772;2024-03-17T15:03:07;5.10;;;1.90;;
5507;SDS011;2776;51.046;6.772;2024-03-17T15:05:35;3.33;;;2.10;;
5507;SDS011;2776;51.046;6.772;2024-03-17T15:08:02;4.67;;;2.40;;
5507;SDS011;2776;51.046;6.772;2024-03-17T15:10:28;1.87;;;1.77;;
5507;SDS011;2776;51.046;6.772;2024-03-17T15:12:55;2.20;;;2.00;;
5507;SDS011;2776;51.046;6.772;2024-03-17T15:15:22;4.40;;;1.83;;
5507;SDS011;2776;51.046;6.772;2024-03-17T15:17:48;4.27;;;2.00;;
5507;SDS011;2776;51.046;6.772;2024-03-17T15:20:16;3.53;;;1.90;;